HTW weather

Lawrence County Airpark
Chesapeake/Huntington Wva, Ohio, United States

Public forecast

Using degrees Fahrenheit for public forecast. Weather courtesy of forecast.io.

METAR (pilot weather report)

Closest report is Tri-State/Milton J. Ferguson Field, 4.4 nm (8.1 km) SW. Retrieved 2019/07/21 17:51 UTC (20 minutes ago):

KHTS 211751Z 18007KT 10SM FEW120 32/24 A2998 RMK AO2 SLP142 T03170239 10322 20244 58009

TAF (pilot weather forecast)

Closest forecast is Tri-State/Milton J. Ferguson Field, 4.4 nm (8.1 km) SW. Retrieved 2019/07/21 18:42 UTC (0 seconds ago):

TAF KHTS 211741Z 2118/2218 22003KT P6SM VCTS SCT040CB TEMPO 2118/2120 VRB10G20KT 3SM TSRA BKN020CB FM220300 VRB03KT P6SM BKN070 FM220900 20003KT 6SM SHRA BKN035 FM221600 22006KT P6SM SHRA VCTS BKN045CB